createdAt,value
2019-05-21T00:00:12.947Z,14.04
2019-05-21T00:01:12.934Z,14.07
2019-05-21T00:02:12.933Z,14.06
2019-05-21T00:03:12.913Z,14.04
2019-05-21T00:04:27.123Z,14.04
2019-05-21T00:05:13.895Z,14.02
2019-05-21T00:06:12.876Z,14.04
2019-05-21T00:07:12.874Z,14.04
2019-05-21T00:08:12.855Z,14.04
2019-05-21T00:09:12.842Z,14.09
2019-05-21T00:10:12.833Z,14.07
2019-05-21T00:11:12.822Z,14.06
2019-05-21T00:12:12.818Z,14.06
2019-05-21T00:13:12.799Z,14.06
2019-05-21T00:14:12.786Z,14.16
2019-05-21T00:15:12.777Z,14.17
2019-05-21T00:16:12.766Z,14.17
2019-05-21T00:17:12.762Z,14.20
2019-05-21T00:18:12.755Z,14.10
2019-05-21T00:19:12.733Z,14.13
2019-05-21T00:20:12.722Z,14.13
2019-05-21T00:21:12.708Z,14.16
2019-05-21T00:22:12.706Z,14.10
2019-05-21T00:23:12.685Z,14.10
2019-05-21T00:24:12.678Z,14.17
2019-05-21T00:25:16.735Z,14.17
2019-05-21T00:26:12.653Z,14.12
2019-05-21T00:27:12.649Z,14.16
2019-05-21T00:28:12.630Z,14.09
2019-05-21T00:29:12.618Z,14.07
2019-05-21T00:30:12.607Z,14.02
2019-05-21T00:31:12.596Z,14.04
2019-05-21T00:32:12.618Z,14.06
2019-05-21T00:33:12.577Z,14.10
2019-05-21T00:34:12.561Z,14.01
2019-05-21T00:35:12.551Z,13.99
2019-05-21T00:36:12.540Z,14.04
2019-05-21T00:37:12.527Z,14.02
2019-05-21T00:38:12.526Z,13.96
2019-05-21T00:39:12.506Z,14.01
2019-05-21T00:40:12.497Z,13.99
2019-05-21T00:41:12.485Z,13.95
2019-05-21T00:42:12.473Z,13.99
2019-05-21T00:43:12.469Z,13.95
2019-05-21T00:44:12.449Z,13.89
2019-05-21T00:45:12.446Z,13.88
2019-05-21T00:46:12.428Z,13.92
2019-05-21T00:47:12.481Z,13.88
2019-05-21T00:48:12.415Z,13.92
2019-05-21T00:49:12.392Z,13.80
2019-05-21T00:50:12.381Z,13.83
2019-05-21T00:51:12.370Z,13.87
2019-05-21T00:52:12.362Z,13.83
2019-05-21T00:53:12.347Z,13.74
2019-05-21T00:54:12.345Z,13.73
2019-05-21T00:55:12.343Z,13.80
2019-05-21T00:56:12.313Z,13.73
2019-05-21T00:57:12.316Z,13.77
2019-05-21T00:58:12.355Z,13.65
2019-05-21T00:59:12.289Z,13.63
2019-05-21T01:00:12.435Z,13.67
2019-05-21T01:01:12.258Z,13.61
2019-05-21T01:02:12.252Z,13.55
2019-05-21T01:03:12.236Z,13.58
2019-05-21T01:04:12.237Z,13.63
2019-05-21T01:05:12.217Z,13.65
2019-05-21T01:06:12.203Z,13.62
2019-05-21T01:07:12.192Z,13.58
2019-05-21T01:08:12.181Z,13.70
2019-05-21T01:09:12.181Z,13.56
2019-05-21T01:10:12.159Z,13.54
2019-05-21T01:11:12.150Z,13.55
2019-05-21T01:12:12.135Z,13.52
2019-05-21T01:13:12.126Z,13.40
2019-05-21T01:14:12.123Z,13.52
2019-05-21T01:15:12.106Z,13.46
2019-05-21T01:16:12.095Z,13.43
2019-05-21T01:17:12.083Z,13.44
2019-05-21T01:18:12.080Z,13.44
2019-05-21T01:19:12.102Z,13.20
2019-05-21T01:20:12.049Z,13.30
2019-05-21T01:21:12.035Z,13.33
2019-05-21T01:22:12.023Z,13.30
2019-05-21T01:23:12.015Z,13.24
2019-05-21T01:24:12.011Z,13.27
2019-05-21T01:25:11.990Z,13.29
2019-05-21T01:26:11.981Z,13.27
2019-05-21T01:27:11.968Z,13.20
2019-05-21T01:28:11.956Z,13.27
2019-05-21T01:29:11.953Z,13.22
2019-05-21T01:30:11.935Z,13.21
2019-05-21T01:31:11.922Z,13.20
2019-05-21T01:32:11.916Z,13.20
2019-05-21T01:33:11.902Z,13.27
2019-05-21T01:34:11.898Z,13.15
2019-05-21T01:35:17.070Z,13.11
2019-05-21T01:36:12.868Z,13.18
2019-05-21T01:37:11.864Z,13.12
2019-05-21T01:38:11.845Z,13.17
2019-05-21T01:39:11.844Z,13.14
2019-05-21T01:40:11.825Z,13.12
2019-05-21T01:41:11.814Z,13.07
2019-05-21T01:42:11.804Z,13.06
2019-05-21T01:43:11.793Z,13.06
2019-05-21T01:44:11.792Z,13.06
2019-05-21T01:45:11.776Z,13.07
2019-05-21T01:46:11.758Z,13.04
2019-05-21T01:47:11.748Z,13.04
2019-05-21T01:48:11.737Z,12.99
2019-05-21T01:49:11.741Z,13.02
2019-05-21T01:50:11.715Z,13.00
2019-05-21T01:51:11.705Z,12.92
2019-05-21T01:52:11.694Z,12.93
2019-05-21T01:53:11.687Z,12.96
2019-05-21T01:54:11.681Z,12.89
2019-05-21T01:55:11.665Z,12.85
2019-05-21T01:56:11.650Z,12.89
2019-05-21T01:57:11.639Z,12.85
2019-05-21T01:58:11.628Z,12.85
2019-05-21T01:59:11.619Z,12.81
2019-05-21T02:00:11.616Z,12.78
2019-05-21T02:01:11.613Z,12.70
2019-05-21T02:02:11.587Z,12.82
2019-05-21T02:03:11.578Z,12.75
2019-05-21T02:04:11.567Z,12.71
2019-05-21T02:05:11.563Z,12.82
2019-05-21T02:06:11.543Z,12.79
2019-05-21T02:07:11.533Z,12.88
2019-05-21T02:08:11.546Z,12.85
2019-05-21T02:09:11.515Z,12.85
2019-05-21T02:10:11.508Z,12.87
2019-05-21T02:11:11.490Z,12.79
2019-05-21T02:12:11.483Z,12.88
2019-05-21T02:13:11.469Z,12.88
2019-05-21T02:14:11.462Z,12.74
2019-05-21T02:15:11.454Z,12.82
2019-05-21T02:16:11.435Z,12.75
2019-05-21T02:17:11.424Z,12.75
2019-05-21T02:18:11.416Z,12.77
2019-05-21T02:19:11.403Z,12.70
2019-05-21T02:20:11.401Z,12.75
2019-05-21T02:21:11.382Z,12.71
2019-05-21T02:22:11.370Z,12.66
2019-05-21T02:23:11.376Z,12.70
2019-05-21T02:24:11.354Z,12.67
2019-05-21T02:25:11.353Z,12.67
2019-05-21T02:26:11.332Z,12.67
2019-05-21T02:27:11.319Z,12.63
2019-05-21T02:28:11.308Z,12.62
2019-05-21T02:29:11.297Z,12.66
2019-05-21T02:30:11.306Z,12.64
2019-05-21T02:31:11.279Z,12.64
2019-05-21T02:32:11.264Z,12.64
2019-05-21T02:33:11.254Z,12.63
2019-05-21T02:34:11.251Z,12.63
2019-05-21T02:35:11.242Z,12.64
2019-05-21T02:36:11.225Z,12.67
2019-05-21T02:37:11.212Z,12.60
2019-05-21T02:38:11.200Z,12.63
2019-05-21T02:39:11.200Z,12.60
2019-05-21T02:40:11.186Z,12.56
2019-05-21T02:41:11.168Z,12.63
2019-05-21T02:42:11.162Z,12.49
2019-05-21T02:43:11.148Z,12.54
2019-05-21T02:44:11.135Z,12.51
2019-05-21T02:45:11.136Z,12.48
2019-05-21T02:46:11.115Z,12.52
2019-05-21T02:47:11.103Z,12.51
2019-05-21T02:48:11.095Z,12.51
2019-05-21T02:49:11.084Z,12.51
2019-05-21T02:50:11.081Z,12.46
2019-05-21T02:51:11.060Z,12.51
2019-05-21T02:52:11.072Z,12.49
2019-05-21T02:53:11.045Z,12.52
2019-05-21T02:54:11.029Z,12.46
2019-05-21T02:55:11.025Z,12.52
2019-05-21T02:56:11.006Z,12.56
2019-05-21T02:57:10.995Z,12.46
2019-05-21T02:58:10.988Z,12.52
2019-05-21T02:59:10.978Z,12.51
2019-05-21T03:00:10.973Z,12.52
2019-05-21T03:01:10.953Z,12.46
2019-05-21T03:02:10.941Z,12.49
2019-05-21T03:03:10.937Z,12.48
2019-05-21T03:04:10.932Z,12.46
2019-05-21T03:05:10.950Z,12.54
2019-05-21T03:06:14.279Z,12.42
2019-05-21T03:07:10.888Z,12.45
2019-05-21T03:08:10.879Z,12.41
2019-05-21T03:09:10.876Z,12.37
2019-05-21T03:10:10.861Z,12.39
2019-05-21T03:11:10.861Z,12.30
2019-05-21T03:12:10.834Z,12.30
2019-05-21T03:13:10.826Z,12.29
2019-05-21T03:14:10.815Z,12.26
2019-05-21T03:15:10.802Z,12.41
2019-05-21T03:16:10.803Z,12.30
2019-05-21T03:17:10.781Z,12.41
2019-05-21T03:18:10.774Z,12.41
2019-05-21T03:19:10.759Z,12.46
2019-05-21T03:20:10.750Z,12.57
2019-05-21T03:21:10.751Z,12.54
2019-05-21T03:22:10.728Z,12.51
2019-05-21T03:23:10.716Z,12.64
2019-05-21T03:24:10.704Z,12.67
2019-05-21T03:25:10.695Z,12.64
2019-05-21T03:26:10.691Z,12.62
2019-05-21T03:27:10.677Z,12.60
2019-05-21T03:28:10.665Z,12.67
2019-05-21T03:29:10.653Z,12.71
2019-05-21T03:30:10.641Z,12.69
2019-05-21T03:31:10.645Z,12.70
2019-05-21T03:32:10.622Z,12.74
2019-05-21T03:33:10.608Z,12.82
2019-05-21T03:34:10.599Z,12.82
2019-05-21T03:35:10.589Z,12.74
2019-05-21T03:36:10.587Z,12.71
2019-05-21T03:37:10.568Z,12.81
2019-05-21T03:38:10.554Z,12.88
2019-05-21T03:39:10.544Z,12.96
2019-05-21T03:40:10.556Z,13.06
2019-05-21T03:41:10.534Z,13.15
2019-05-21T03:42:10.512Z,13.24
2019-05-21T03:43:10.501Z,13.25
2019-05-21T03:44:10.491Z,13.47
2019-05-21T03:45:10.480Z,13.55
2019-05-21T03:46:10.483Z,13.38
2019-05-21T03:47:10.475Z,13.33
2019-05-21T03:48:10.459Z,13.38
2019-05-21T03:49:10.436Z,13.33
2019-05-21T03:50:10.424Z,13.37
2019-05-21T03:51:10.422Z,13.38
2019-05-21T03:52:10.440Z,13.29
2019-05-21T03:53:10.403Z,13.14
2019-05-21T03:54:10.378Z,13.11
2019-05-21T03:55:10.371Z,13.14
2019-05-21T03:56:10.368Z,13.21
2019-05-21T03:57:10.345Z,13.14
2019-05-21T03:58:10.335Z,13.24
2019-05-21T03:59:10.322Z,13.25
2019-05-21T04:00:10.328Z,13.37
2019-05-21T04:01:10.307Z,13.33
2019-05-21T04:02:10.295Z,13.44
2019-05-21T04:03:10.278Z,13.33
2019-05-21T04:04:10.267Z,13.40
2019-05-21T04:05:10.255Z,13.47
2019-05-21T04:06:10.256Z,13.32
2019-05-21T04:07:10.232Z,13.33
2019-05-21T04:08:10.223Z,13.44
2019-05-21T04:09:10.218Z,13.44
2019-05-21T04:10:10.199Z,13.49
2019-05-21T04:11:10.195Z,13.37
2019-05-21T04:12:10.177Z,13.30
2019-05-21T04:13:10.168Z,13.27
2019-05-21T04:14:10.154Z,13.30
2019-05-21T04:15:10.143Z,13.36
2019-05-21T04:16:10.162Z,13.49
2019-05-21T04:17:10.119Z,13.46
2019-05-21T04:18:10.111Z,13.54
2019-05-21T04:19:10.095Z,13.41
2019-05-21T04:20:10.087Z,13.46
2019-05-21T04:21:10.073Z,13.54
2019-05-21T04:22:10.075Z,13.47
2019-05-21T04:23:10.052Z,13.55
2019-05-21T04:24:10.042Z,13.65
2019-05-21T04:25:10.032Z,13.69
2019-05-21T04:26:10.019Z,13.67
2019-05-21T04:27:10.014Z,13.73
2019-05-21T04:28:09.997Z,13.55
2019-05-21T04:29:09.988Z,13.63
2019-05-21T04:30:11.320Z,13.81
2019-05-21T04:31:09.963Z,14.04
2019-05-21T04:32:09.958Z,14.24
2019-05-21T04:33:09.941Z,14.49
2019-05-21T04:34:09.932Z,14.72
2019-05-21T04:35:09.920Z,14.78
2019-05-21T04:36:09.909Z,15.08
2019-05-21T04:37:11.749Z,15.21
2019-05-21T04:38:09.888Z,15.30
2019-05-21T04:39:09.906Z,15.72
2019-05-21T04:40:09.866Z,16.37
2019-05-21T04:41:09.863Z,16.96
2019-05-21T04:42:09.865Z,17.69
2019-05-21T04:43:09.840Z,18.40
2019-05-21T04:44:09.821Z,18.76
2019-05-21T04:45:09.810Z,19.35
2019-05-21T04:46:09.799Z,19.60
2019-05-21T04:47:09.805Z,19.83
2019-05-21T04:48:09.780Z,19.78
2019-05-21T04:49:09.767Z,19.75
2019-05-21T04:50:09.755Z,19.98
2019-05-21T04:51:13.536Z,20.54
2019-05-21T04:52:09.746Z,20.95
2019-05-21T04:53:09.729Z,21.41
2019-05-21T04:54:09.713Z,21.83
2019-05-21T04:55:09.706Z,22.38
2019-05-21T04:56:09.697Z,22.72
2019-05-21T04:57:09.690Z,22.57
2019-05-21T04:58:09.670Z,22.86
2019-05-21T04:59:09.659Z,23.32
2019-05-21T05:00:09.658Z,23.72
2019-05-21T05:01:09.648Z,24.13
2019-05-21T05:02:09.637Z,24.23
2019-05-21T05:03:09.618Z,24.41
2019-05-21T05:04:09.609Z,24.67
2019-05-21T05:05:09.604Z,24.77
2019-05-21T05:06:09.588Z,24.91
2019-05-21T05:07:25.237Z,24.88
2019-05-21T05:08:10.567Z,25.07
2019-05-21T05:09:09.556Z,25.34
2019-05-21T05:10:09.546Z,25.17
2019-05-21T05:11:09.536Z,25.22
2019-05-21T05:12:09.541Z,25.20
2019-05-21T05:13:09.515Z,25.34
2019-05-21T05:14:09.506Z,25.59
2019-05-21T05:15:09.496Z,25.62
2019-05-21T05:16:09.486Z,25.69
2019-05-21T05:17:09.513Z,25.59
2019-05-21T05:18:09.465Z,25.37
2019-05-21T05:19:09.455Z,25.37
2019-05-21T05:20:09.445Z,24.95
2019-05-21T05:21:09.436Z,24.41
2019-05-21T05:22:09.425Z,24.56
2019-05-21T05:23:09.424Z,24.69
2019-05-21T05:24:09.407Z,24.14
2019-05-21T05:25:09.399Z,23.98
2019-05-21T05:26:09.388Z,23.87
2019-05-21T05:27:09.378Z,24.31
2019-05-21T05:28:09.399Z,24.75
2019-05-21T05:29:09.361Z,24.79
2019-05-21T05:30:09.356Z,24.68
2019-05-21T05:31:09.340Z,24.67
2019-05-21T05:32:09.328Z,24.91
2019-05-21T05:33:09.331Z,24.90
2019-05-21T05:34:09.309Z,25.22
2019-05-21T05:35:09.301Z,25.16
2019-05-21T05:36:09.300Z,25.17
2019-05-21T05:37:09.281Z,25.27
2019-05-21T05:38:09.279Z,25.39
2019-05-21T05:39:09.273Z,25.44
2019-05-21T05:40:09.336Z,25.22
2019-05-21T05:41:09.243Z,25.28
2019-05-21T05:42:09.233Z,24.87
2019-05-21T05:43:09.239Z,24.79
2019-05-21T05:44:09.217Z,24.68
2019-05-21T05:45:09.208Z,25.02
2019-05-21T05:46:09.196Z,25.12
2019-05-21T05:47:09.188Z,25.32
2019-05-21T05:48:09.188Z,25.72
2019-05-21T05:49:09.168Z,25.86
2019-05-21T05:50:09.159Z,26.39
2019-05-21T05:51:09.154Z,26.91
2019-05-21T05:52:09.140Z,27.10
2019-05-21T05:53:09.142Z,27.14
2019-05-21T05:54:09.126Z,27.28
2019-05-21T05:55:09.118Z,27.41
2019-05-21T05:56:09.103Z,26.95
2019-05-21T05:57:09.096Z,26.50
2019-05-21T05:58:09.092Z,26.46
2019-05-21T05:59:09.076Z,26.80
2019-05-21T06:00:09.066Z,26.91
2019-05-21T06:01:09.058Z,27.14
2019-05-21T06:02:09.049Z,27.54
2019-05-21T06:03:09.050Z,27.80
2019-05-21T06:04:09.030Z,28.01
2019-05-21T06:05:09.025Z,28.09
2019-05-21T06:06:09.019Z,28.10
2019-05-21T06:07:09.011Z,28.16
2019-05-21T06:08:09.006Z,28.07
2019-05-21T06:09:08.988Z,28.14
2019-05-21T06:10:08.976Z,27.94
2019-05-21T06:11:09.007Z,27.86
2019-05-21T06:12:08.959Z,27.66
2019-05-21T06:13:08.988Z,26.99
2019-05-21T06:14:08.942Z,26.95
2019-05-21T06:15:08.932Z,27.21
2019-05-21T06:16:08.922Z,27.69
2019-05-21T06:17:08.917Z,28.03
2019-05-21T06:18:08.903Z,28.40
2019-05-21T06:19:08.907Z,28.43
2019-05-21T06:20:08.892Z,28.36
2019-05-21T06:21:08.877Z,28.40
2019-05-21T06:22:08.869Z,28.07
2019-05-21T06:23:08.867Z,28.25
2019-05-21T06:24:08.858Z,28.44
2019-05-21T06:25:08.869Z,28.84
2019-05-21T06:26:08.835Z,28.93
2019-05-21T06:27:08.823Z,28.35
2019-05-21T06:28:08.815Z,27.50
2019-05-21T06:29:08.814Z,27.41
2019-05-21T06:30:08.795Z,27.11
2019-05-21T06:31:08.787Z,27.09
2019-05-21T06:32:08.777Z,26.94
2019-05-21T06:33:08.769Z,26.96
2019-05-21T06:34:08.770Z,26.94
2019-05-21T06:35:08.750Z,26.80
2019-05-21T06:36:08.741Z,26.89
2019-05-21T06:37:08.732Z,26.98
2019-05-21T06:38:17.895Z,26.61
2019-05-21T06:39:09.725Z,26.59
2019-05-21T06:40:08.709Z,26.83
2019-05-21T06:41:08.707Z,27.23
2019-05-21T06:42:08.685Z,27.04
2019-05-21T06:43:08.687Z,27.21
2019-05-21T06:44:08.674Z,26.98
2019-05-21T06:45:08.656Z,26.09
2019-05-21T06:46:08.648Z,26.24
2019-05-21T06:47:08.639Z,26.73
2019-05-21T06:48:08.630Z,27.04
2019-05-21T06:49:08.627Z,26.94
2019-05-21T06:50:08.609Z,26.96
2019-05-21T06:51:08.599Z,27.05
2019-05-21T06:52:08.591Z,27.36
2019-05-21T06:53:08.577Z,27.50
2019-05-21T06:54:08.578Z,27.10
2019-05-21T06:55:08.559Z,27.06
2019-05-21T06:56:08.550Z,26.99
2019-05-21T06:57:08.538Z,27.21
2019-05-21T06:58:08.529Z,27.06
2019-05-21T06:59:08.536Z,26.98
2019-05-21T07:00:08.512Z,26.99
2019-05-21T07:01:08.499Z,26.62
2019-05-21T07:02:08.497Z,26.35
2019-05-21T07:03:08.479Z,26.32
2019-05-21T07:04:08.492Z,26.50
2019-05-21T07:05:08.457Z,26.49
2019-05-21T07:06:08.450Z,26.57
2019-05-21T07:07:08.438Z,26.59
2019-05-21T07:08:08.429Z,26.40
2019-05-21T07:09:08.428Z,26.64
2019-05-21T07:10:08.409Z,26.84
2019-05-21T07:11:08.397Z,26.18
2019-05-21T07:12:08.386Z,25.22
2019-05-21T07:13:08.378Z,25.09
2019-05-21T07:14:08.377Z,25.19
2019-05-21T07:15:08.357Z,25.37
2019-05-21T07:16:08.346Z,25.56
2019-05-21T07:17:08.336Z,25.42
2019-05-21T07:18:08.327Z,25.54
2019-05-21T07:19:08.327Z,25.35
2019-05-21T07:20:08.307Z,25.13
2019-05-21T07:21:08.294Z,25.09
2019-05-21T07:22:12.502Z,24.54
2019-05-21T07:23:08.275Z,23.92
2019-05-21T07:24:08.272Z,23.75
2019-05-21T07:25:08.254Z,23.77
2019-05-21T07:26:08.244Z,24.17
2019-05-21T07:27:08.286Z,24.53
2019-05-21T07:28:08.280Z,24.85
2019-05-21T07:29:08.259Z,24.91
2019-05-21T07:30:08.201Z,25.01
2019-05-21T07:31:08.191Z,25.13
2019-05-21T07:32:08.179Z,25.35
2019-05-21T07:33:08.213Z,25.34
2019-05-21T07:34:08.158Z,25.27
2019-05-21T07:35:08.156Z,25.12
2019-05-21T07:36:08.137Z,25.02
2019-05-21T07:37:08.127Z,24.94
2019-05-21T07:38:08.125Z,24.91
2019-05-21T07:39:08.106Z,24.19
2019-05-21T07:40:08.103Z,24.13
2019-05-21T07:41:08.091Z,24.19
2019-05-21T07:42:08.075Z,24.14
2019-05-21T07:43:08.065Z,23.90
2019-05-21T07:44:08.054Z,23.38
2019-05-21T07:45:08.052Z,23.11
2019-05-21T07:46:08.037Z,23.38
2019-05-21T07:47:08.021Z,23.35
2019-05-21T07:48:08.010Z,23.02
2019-05-21T07:49:08.007Z,23.01
2019-05-21T07:50:08.006Z,23.14
2019-05-21T07:51:07.977Z,23.35
2019-05-21T07:52:07.970Z,23.50
2019-05-21T07:53:07.956Z,23.90
2019-05-21T07:54:07.945Z,24.10
2019-05-21T07:55:07.947Z,24.31
2019-05-21T07:56:07.926Z,24.44
2019-05-21T07:57:07.915Z,24.52
2019-05-21T07:58:07.902Z,23.98
2019-05-21T07:59:07.892Z,23.85
2019-05-21T08:00:07.889Z,23.62
2019-05-21T08:01:07.896Z,23.70
2019-05-21T08:02:07.859Z,23.76
2019-05-21T08:03:07.871Z,23.89
2019-05-21T08:04:07.838Z,23.98
2019-05-21T08:05:07.838Z,24.10
2019-05-21T08:06:07.819Z,24.10
2019-05-21T08:07:07.808Z,23.90
2019-05-21T08:08:07.797Z,23.82
2019-05-21T08:09:13.868Z,23.90
2019-05-21T08:10:08.912Z,23.70
2019-05-21T08:11:07.765Z,23.53
2019-05-21T08:12:34.546Z,23.71
2019-05-21T08:13:08.743Z,23.65
2019-05-21T08:14:07.734Z,23.67
2019-05-21T08:15:07.731Z,23.43
2019-05-21T08:16:07.715Z,23.34
2019-05-21T08:17:07.706Z,23.12
2019-05-21T08:18:07.691Z,23.24
2019-05-21T08:19:07.681Z,23.46
2019-05-21T08:20:09.769Z,23.75
2019-05-21T08:21:07.663Z,23.95
2019-05-21T08:22:07.649Z,24.07
2019-05-21T08:23:07.639Z,23.61
2019-05-21T08:24:07.627Z,23.46
2019-05-21T08:25:07.617Z,23.45
2019-05-21T08:26:07.623Z,23.50
2019-05-21T08:27:07.630Z,23.77
2019-05-21T08:28:07.585Z,23.90
2019-05-21T08:29:07.620Z,24.23
2019-05-21T08:30:07.579Z,24.37
2019-05-21T08:31:07.561Z,24.57
2019-05-21T08:32:07.542Z,24.57
2019-05-21T08:33:07.591Z,24.79
2019-05-21T08:34:07.529Z,24.83
2019-05-21T08:35:07.512Z,24.88
2019-05-21T08:36:07.508Z,24.87
2019-05-21T08:37:07.487Z,24.80
2019-05-21T08:38:07.477Z,24.73
2019-05-21T08:39:07.470Z,24.67
2019-05-21T08:40:07.459Z,24.82
2019-05-21T08:41:07.461Z,24.83
2019-05-21T08:42:07.437Z,24.94
2019-05-21T08:43:07.423Z,24.98
2019-05-21T08:44:07.414Z,24.94
2019-05-21T08:45:07.403Z,25.02
2019-05-21T08:46:07.400Z,25.06
2019-05-21T08:47:07.382Z,25.19
2019-05-21T08:48:07.374Z,25.22
2019-05-21T08:49:07.362Z,25.31
2019-05-21T08:50:07.359Z,25.24
2019-05-21T08:51:07.350Z,24.52
2019-05-21T08:52:07.335Z,24.53
2019-05-21T08:53:07.322Z,24.44
2019-05-21T08:54:07.309Z,24.53
2019-05-21T08:55:07.299Z,24.67
2019-05-21T08:56:07.297Z,24.85
2019-05-21T08:57:07.278Z,25.05
2019-05-21T08:58:07.927Z,25.02
2019-05-21T08:59:07.258Z,25.22
2019-05-21T09:00:07.246Z,25.31
2019-05-21T09:01:07.249Z,25.35
2019-05-21T09:02:07.233Z,25.24
2019-05-21T09:03:07.214Z,25.06
2019-05-21T09:04:07.202Z,24.80
2019-05-21T09:05:07.193Z,24.79
2019-05-21T09:06:07.193Z,24.68
2019-05-21T09:07:07.174Z,24.98
2019-05-21T09:08:07.181Z,25.16
2019-05-21T09:09:07.153Z,25.49
2019-05-21T09:10:07.144Z,25.74
2019-05-21T09:11:07.140Z,25.74
2019-05-21T09:12:07.123Z,25.19
2019-05-21T09:13:07.108Z,24.85
2019-05-21T09:14:07.101Z,24.56
2019-05-21T09:15:07.089Z,24.17
2019-05-21T09:16:07.085Z,23.64
2019-05-21T09:17:07.067Z,23.49
2019-05-21T09:18:07.061Z,23.49
2019-05-21T09:19:07.046Z,23.42
2019-05-21T09:20:07.058Z,23.42
2019-05-21T09:21:07.034Z,23.35
2019-05-21T09:22:07.021Z,23.50
2019-05-21T09:23:07.004Z,23.49
2019-05-21T09:24:06.995Z,23.65
2019-05-21T09:25:07.008Z,23.75
2019-05-21T09:26:06.985Z,23.85
2019-05-21T09:27:06.964Z,24.14
2019-05-21T09:28:06.952Z,24.53
2019-05-21T09:29:06.956Z,24.79
2019-05-21T09:30:06.929Z,24.64
2019-05-21T09:31:06.932Z,24.52
2019-05-21T09:32:06.907Z,24.54
2019-05-21T09:33:06.901Z,24.53
2019-05-21T09:34:06.888Z,24.91
2019-05-21T09:35:06.876Z,24.90
2019-05-21T09:36:06.877Z,24.92
2019-05-21T09:37:19.417Z,24.77
2019-05-21T09:38:07.844Z,24.61
2019-05-21T09:39:06.833Z,24.31
2019-05-21T09:40:06.824Z,24.08
2019-05-21T09:41:06.841Z,23.86
2019-05-21T09:42:06.803Z,23.87
2019-05-21T09:43:06.795Z,23.97
2019-05-21T09:44:06.780Z,23.95
2019-05-21T09:45:06.773Z,24.10
2019-05-21T09:46:06.761Z,24.10
2019-05-21T09:47:06.758Z,24.13
2019-05-21T09:48:06.741Z,24.16
2019-05-21T09:49:06.738Z,24.19
2019-05-21T09:50:06.849Z,24.20
2019-05-21T09:51:06.707Z,24.29
2019-05-21T09:52:06.704Z,24.31
2019-05-21T09:53:06.688Z,24.35
2019-05-21T09:54:06.679Z,24.37
2019-05-21T09:55:06.663Z,24.35
2019-05-21T09:56:06.653Z,24.32
2019-05-21T09:57:06.650Z,24.31
2019-05-21T09:58:06.635Z,24.19
2019-05-21T09:59:06.620Z,24.14
2019-05-21T10:00:06.615Z,24.12
2019-05-21T10:01:06.600Z,24.02
2019-05-21T10:02:06.622Z,24.29
2019-05-21T10:03:06.580Z,24.61
2019-05-21T10:04:06.565Z,24.83
2019-05-21T10:05:06.566Z,25.01
2019-05-21T10:06:06.547Z,25.30
2019-05-21T10:07:06.545Z,25.50
2019-05-21T10:08:06.525Z,25.71
2019-05-21T10:09:06.514Z,25.89
2019-05-21T10:10:06.505Z,26.21
2019-05-21T10:11:06.493Z,26.27
2019-05-21T10:12:06.491Z,26.37
2019-05-21T10:13:06.475Z,26.40
2019-05-21T10:14:06.463Z,26.05
2019-05-21T10:15:06.451Z,25.68
2019-05-21T10:16:06.443Z,25.69
2019-05-21T10:17:06.443Z,25.98
2019-05-21T10:18:06.420Z,25.52
2019-05-21T10:19:06.410Z,25.12
2019-05-21T10:20:06.398Z,24.83
2019-05-21T10:21:06.387Z,24.69
2019-05-21T10:22:06.585Z,24.45
2019-05-21T10:23:06.367Z,24.45
2019-05-21T10:24:06.363Z,24.45
2019-05-21T10:25:06.411Z,24.53
2019-05-21T10:26:06.336Z,24.64
2019-05-21T10:27:06.333Z,24.76
2019-05-21T10:28:06.316Z,25.01
2019-05-21T10:29:06.305Z,25.37
2019-05-21T10:30:06.307Z,25.56
2019-05-21T10:31:06.286Z,25.67
2019-05-21T10:32:06.282Z,25.67
2019-05-21T10:33:06.264Z,25.64
2019-05-21T10:34:06.255Z,25.80
2019-05-21T10:35:06.445Z,25.69
2019-05-21T10:36:06.236Z,25.65
2019-05-21T10:37:06.248Z,25.83
2019-05-21T10:38:06.210Z,25.97
2019-05-21T10:39:06.201Z,26.08
2019-05-21T10:40:06.191Z,26.28
2019-05-21T10:41:06.187Z,26.55
2019-05-21T10:42:06.234Z,26.65
2019-05-21T10:43:06.156Z,26.77
2019-05-21T10:44:06.146Z,26.74
2019-05-21T10:45:06.143Z,26.74
2019-05-21T10:46:06.127Z,26.95
2019-05-21T10:47:06.115Z,26.96
2019-05-21T10:48:06.191Z,27.13
2019-05-21T10:49:06.100Z,26.91
2019-05-21T10:50:06.083Z,26.80
2019-05-21T10:51:06.074Z,26.79
2019-05-21T10:52:06.067Z,26.95
2019-05-21T10:53:06.063Z,26.94
2019-05-21T10:54:06.040Z,26.89
2019-05-21T10:55:06.029Z,26.77
2019-05-21T10:56:06.017Z,26.50
2019-05-21T10:57:06.007Z,25.98
2019-05-21T10:58:06.010Z,25.91
2019-05-21T10:59:05.987Z,25.65
2019-05-21T11:00:05.978Z,25.17
2019-05-21T11:01:05.965Z,25.24
2019-05-21T11:02:05.954Z,25.13
2019-05-21T11:03:05.951Z,25.09
2019-05-21T11:04:05.936Z,25.09
2019-05-21T11:05:05.936Z,25.05
2019-05-21T11:06:10.158Z,25.00
2019-05-21T11:07:05.899Z,24.94
2019-05-21T11:08:23.096Z,25.01
2019-05-21T11:09:06.878Z,25.01
2019-05-21T11:10:07.101Z,25.01
2019-05-21T11:11:05.863Z,25.06
2019-05-21T11:12:05.848Z,25.01
2019-05-21T11:13:05.848Z,25.19
2019-05-21T11:14:05.835Z,25.24
2019-05-21T11:15:05.823Z,25.25
2019-05-21T11:16:05.822Z,25.38
2019-05-21T11:17:05.796Z,25.46
2019-05-21T11:18:11.049Z,25.62
2019-05-21T11:19:06.771Z,25.65
2019-05-21T11:20:05.765Z,25.68
2019-05-21T11:21:05.752Z,25.74
2019-05-21T11:22:05.743Z,25.52
2019-05-21T11:23:05.742Z,25.39
2019-05-21T11:24:05.783Z,25.38
2019-05-21T11:25:05.709Z,25.56
2019-05-21T11:26:05.807Z,25.57
2019-05-21T11:27:05.689Z,25.59
2019-05-21T11:28:06.349Z,25.34
2019-05-21T11:29:05.667Z,25.34
2019-05-21T11:30:05.666Z,25.27
2019-05-21T11:31:05.646Z,25.22
2019-05-21T11:32:05.638Z,25.22
2019-05-21T11:33:05.679Z,25.20
2019-05-21T11:34:05.617Z,25.31
2019-05-21T11:35:05.608Z,25.43
2019-05-21T11:36:05.594Z,25.64
2019-05-21T11:37:05.590Z,25.74
2019-05-21T11:38:05.573Z,25.89
2019-05-21T11:39:05.574Z,26.01
2019-05-21T11:40:08.387Z,26.08
2019-05-21T11:41:05.572Z,26.09
2019-05-21T11:42:05.529Z,26.01
2019-05-21T11:43:05.526Z,25.79
2019-05-21T11:44:05.546Z,25.89
2019-05-21T11:45:05.500Z,25.98
2019-05-21T11:46:05.492Z,25.89
2019-05-21T11:47:05.475Z,25.98
2019-05-21T11:48:05.464Z,26.22
2019-05-21T11:49:05.461Z,26.31
2019-05-21T11:50:05.446Z,26.39
2019-05-21T11:51:05.434Z,26.44
2019-05-21T11:52:05.420Z,26.37
2019-05-21T11:53:05.413Z,26.47
2019-05-21T11:54:05.407Z,26.40
2019-05-21T11:55:05.389Z,26.50
2019-05-21T11:56:05.377Z,26.57
2019-05-21T11:57:05.366Z,26.69
2019-05-21T11:58:05.357Z,26.81
2019-05-21T11:59:05.358Z,26.89
2019-05-21T12:00:05.334Z,26.81
2019-05-21T12:01:05.323Z,26.68
2019-05-21T12:02:05.313Z,26.64
2019-05-21T12:03:05.301Z,26.76
2019-05-21T12:04:05.300Z,26.94
2019-05-21T12:05:05.281Z,26.89
2019-05-21T12:06:05.282Z,26.86
2019-05-21T12:07:05.313Z,26.69
2019-05-21T12:08:05.248Z,26.69
2019-05-21T12:09:05.249Z,26.72
2019-05-21T12:10:05.225Z,26.68
2019-05-21T12:11:05.216Z,26.46
2019-05-21T12:12:05.209Z,26.39
2019-05-21T12:13:05.192Z,26.40
2019-05-21T12:14:05.191Z,26.49
2019-05-21T12:15:05.172Z,26.67
2019-05-21T12:16:05.162Z,26.73
2019-05-21T12:17:05.150Z,26.83
2019-05-21T12:18:05.141Z,26.91
2019-05-21T12:19:07.953Z,27.05
2019-05-21T12:20:05.121Z,27.24
2019-05-21T12:21:05.111Z,27.13
2019-05-21T12:22:05.097Z,27.01
2019-05-21T12:23:05.090Z,26.96
2019-05-21T12:24:05.085Z,27.01
2019-05-21T12:25:05.093Z,27.09
2019-05-21T12:26:05.063Z,27.11
2019-05-21T12:27:05.047Z,26.65
2019-05-21T12:28:05.037Z,26.58
2019-05-21T12:29:05.033Z,26.55
2019-05-21T12:30:05.013Z,26.67
2019-05-21T12:31:05.004Z,26.65
2019-05-21T12:32:04.993Z,26.68
2019-05-21T12:33:04.981Z,26.80
2019-05-21T12:34:05.011Z,26.94
2019-05-21T12:35:04.960Z,26.98
2019-05-21T12:36:04.952Z,26.86
2019-05-21T12:37:04.939Z,26.95
2019-05-21T12:38:04.928Z,27.04
2019-05-21T12:39:13.643Z,26.94
2019-05-21T12:40:05.917Z,27.09
2019-05-21T12:41:04.896Z,27.13
2019-05-21T12:42:04.968Z,27.13
2019-05-21T12:43:04.875Z,26.96
2019-05-21T12:44:04.866Z,26.72
2019-05-21T12:45:04.860Z,26.47
2019-05-21T12:46:04.847Z,26.50
2019-05-21T12:47:04.847Z,26.59
2019-05-21T12:48:04.822Z,26.76
2019-05-21T12:49:04.814Z,26.89
2019-05-21T12:50:04.809Z,26.99
2019-05-21T12:51:04.789Z,26.94
2019-05-21T12:52:04.817Z,26.94